KLM137 EHAM-LOWW
Flight info
| Callsign | KLM137 |
|---|---|
| Flight time | 1h 28m |
| Altitude | 37000 |
| Route | ARNEM L620 HMM DCT NOMKA DCT OMELO DCT EVIKU DCT BITSI DCT MIKOV MIKOV8W |
| Aircraft | A21N/M-SDE2E3FGHIRWXY/LB1 |
Departure
| Time | 2026-04-30 19:30 |
|---|---|
| Airport | Amsterdam Airport Schiphol (EHAM) |
Arrival
| Time | 2026-04-30 20:58 |
|---|---|
| Airport | Vienna International Airport (LOWW) |
| Time | Latitude | Longitude | Altitude | Speed | Heading |
|---|---|---|---|---|---|
| 2026-04-30 18:49 | 52.31166 | 4.76783 | 3 ft | 0 kts | 303° |
| 2026-04-30 19:17 | 52.31161 | 4.76796 | 2 ft | 2 kts | 304° |
| 2026-04-30 19:18 | 52.31144 | 4.76831 | 1 ft | 2 kts | 313° |
| 2026-04-30 19:18 | 52.31127 | 4.76855 | 0 ft | 2 kts | 326° |
| 2026-04-30 19:18 | 52.31113 | 4.76868 | 1 ft | 2 kts | 341° |
| 2026-04-30 19:19 | 52.31097 | 4.76872 | 1 ft | 2 kts | 5° |
| 2026-04-30 19:19 | 52.31082 | 4.76865 | 0 ft | 2 kts | 27° |
| 2026-04-30 19:19 | 52.31077 | 4.76861 | 0 ft | 0 kts | 30° |
| 2026-04-30 19:23 | 52.31082 | 4.76866 | 0 ft | 3 kts | 30° |
| 2026-04-30 19:24 | 52.31235 | 4.77026 | 4 ft | 21 kts | 34° |
| 2026-04-30 19:24 | 52.31350 | 4.77154 | 7 ft | 19 kts | 34° |
| 2026-04-30 19:24 | 52.31562 | 4.77170 | 12 ft | 13 kts | 310° |
| 2026-04-30 19:25 | 52.31561 | 4.76800 | 14 ft | 13 kts | 267° |
| 2026-04-30 19:26 | 52.31551 | 4.76462 | 21 ft | 14 kts | 267° |
| 2026-04-30 19:26 | 52.31537 | 4.76087 | 21 ft | 19 kts | 266° |
| 2026-04-30 19:26 | 52.31529 | 4.75858 | 18 ft | 22 kts | 266° |
| 2026-04-30 19:27 | 52.31506 | 4.75268 | 12 ft | 28 kts | 267° |
| 2026-04-30 19:27 | 52.31492 | 4.74744 | 17 ft | 12 kts | 277° |
| 2026-04-30 19:28 | 52.31535 | 4.74667 | 20 ft | 8 kts | 341° |
| 2026-04-30 19:28 | 52.31640 | 4.74676 | 22 ft | 7 kts | 30° |
| 2026-04-30 19:29 | 52.31674 | 4.74878 | 18 ft | 33 kts | 87° |
| 2026-04-30 19:29 | 52.31697 | 4.75591 | 17 ft | 94 kts | 86° |
| 2026-04-30 19:30 | 52.31833 | 4.80668 | 1159 ft | 154 kts | 92° |
| 2026-04-30 19:30 | 52.32014 | 4.84213 | 2305 ft | 173 kts | 91° |
| 2026-04-30 19:31 | 52.31658 | 4.88433 | 2935 ft | 209 kts | 114° |
| 2026-04-30 19:31 | 52.31071 | 4.90683 | 3445 ft | 220 kts | 116° |
| 2026-04-30 19:31 | 52.29770 | 4.95518 | 4632 ft | 240 kts | 113° |
| 2026-04-30 19:32 | 52.29231 | 4.98125 | 5420 ft | 244 kts | 109° |
| 2026-04-30 19:32 | 52.28914 | 4.99886 | 5945 ft | 246 kts | 108° |
| 2026-04-30 19:32 | 52.28444 | 5.02587 | 6764 ft | 249 kts | 108° |
| 2026-04-30 19:32 | 52.27970 | 5.05326 | 7524 ft | 252 kts | 108° |
| 2026-04-30 19:33 | 52.27488 | 5.08106 | 8270 ft | 258 kts | 108° |
| 2026-04-30 19:33 | 52.26994 | 5.10942 | 9057 ft | 261 kts | 108° |
| 2026-04-30 19:33 | 52.26498 | 5.13823 | 9801 ft | 266 kts | 107° |
| 2026-04-30 19:33 | 52.26034 | 5.16768 | 10503 ft | 271 kts | 105° |
| 2026-04-30 19:34 | 52.25581 | 5.19859 | 10858 ft | 289 kts | 105° |
| 2026-04-30 19:34 | 52.25115 | 5.23161 | 11169 ft | 308 kts | 104° |
| 2026-04-30 19:34 | 52.24110 | 5.30377 | 11937 ft | 338 kts | 104° |
| 2026-04-30 19:35 | 52.23585 | 5.34131 | 12594 ft | 343 kts | 104° |
| 2026-04-30 19:35 | 52.23048 | 5.37941 | 13298 ft | 347 kts | 104° |
| 2026-04-30 19:35 | 52.22501 | 5.41794 | 13977 ft | 350 kts | 104° |
| 2026-04-30 19:35 | 52.21945 | 5.45682 | 14569 ft | 354 kts | 104° |
| 2026-04-30 19:36 | 52.21380 | 5.49613 | 15134 ft | 358 kts | 104° |
| 2026-04-30 19:36 | 52.20823 | 5.53478 | 15715 ft | 361 kts | 104° |
| 2026-04-30 19:36 | 52.19659 | 5.61517 | 16890 ft | 367 kts | 104° |
| 2026-04-30 19:37 | 52.19068 | 5.65584 | 17469 ft | 371 kts | 104° |
| 2026-04-30 19:37 | 52.18470 | 5.69686 | 18024 ft | 374 kts | 104° |
| 2026-04-30 19:37 | 52.17866 | 5.73824 | 18592 ft | 377 kts | 104° |
| 2026-04-30 19:37 | 52.17255 | 5.77995 | 19063 ft | 380 kts | 104° |
| 2026-04-30 19:38 | 52.16634 | 5.82223 | 19523 ft | 384 kts | 104° |
| 2026-04-30 19:38 | 52.16012 | 5.86451 | 19970 ft | 388 kts | 104° |
| 2026-04-30 19:38 | 52.15378 | 5.90740 | 20414 ft | 391 kts | 104° |
| 2026-04-30 19:38 | 52.14740 | 5.95051 | 20890 ft | 393 kts | 104° |
| 2026-04-30 19:39 | 52.14104 | 5.99334 | 21332 ft | 396 kts | 104° |
| 2026-04-30 19:39 | 52.13445 | 6.03759 | 21749 ft | 400 kts | 104° |
| 2026-04-30 19:39 | 52.12793 | 6.08126 | 22163 ft | 403 kts | 104° |
| 2026-04-30 19:39 | 52.12119 | 6.12626 | 22605 ft | 406 kts | 104° |
| 2026-04-30 19:40 | 52.11457 | 6.17036 | 23040 ft | 409 kts | 104° |
| 2026-04-30 19:40 | 52.10769 | 6.21606 | 23501 ft | 411 kts | 104° |
| 2026-04-30 19:40 | 52.10094 | 6.26081 | 23894 ft | 414 kts | 104° |
| 2026-04-30 19:40 | 52.09403 | 6.30646 | 24242 ft | 417 kts | 104° |
| 2026-04-30 19:41 | 52.08706 | 6.35234 | 24627 ft | 418 kts | 104° |
| 2026-04-30 19:41 | 52.08006 | 6.39834 | 24943 ft | 421 kts | 104° |
| 2026-04-30 19:41 | 52.07296 | 6.44478 | 25218 ft | 425 kts | 104° |
| 2026-04-30 19:41 | 52.06578 | 6.49165 | 25577 ft | 427 kts | 104° |
| 2026-04-30 19:42 | 52.05860 | 6.53840 | 25899 ft | 429 kts | 104° |
| 2026-04-30 19:42 | 52.05131 | 6.58571 | 26198 ft | 432 kts | 104° |
| 2026-04-30 19:42 | 52.04401 | 6.63299 | 26548 ft | 433 kts | 104° |
| 2026-04-30 19:42 | 52.03665 | 6.68049 | 26872 ft | 435 kts | 104° |
| 2026-04-30 19:43 | 52.02921 | 6.72835 | 27102 ft | 438 kts | 104° |
| 2026-04-30 19:43 | 52.02175 | 6.77620 | 27460 ft | 437 kts | 104° |
| 2026-04-30 19:43 | 52.01430 | 6.82374 | 27983 ft | 433 kts | 104° |
| 2026-04-30 19:44 | 51.99950 | 6.91766 | 29050 ft | 425 kts | 103° |
| 2026-04-30 19:44 | 51.99219 | 6.96379 | 29597 ft | 420 kts | 103° |
| 2026-04-30 19:44 | 51.98497 | 7.00933 | 30148 ft | 415 kts | 103° |
| 2026-04-30 19:44 | 51.97779 | 7.05435 | 30668 ft | 409 kts | 103° |
| 2026-04-30 19:45 | 51.97065 | 7.09879 | 31028 ft | 406 kts | 103° |
| 2026-04-30 19:45 | 51.96309 | 7.14290 | 31310 ft | 405 kts | 105° |
| 2026-04-30 19:45 | 51.95511 | 7.18697 | 31358 ft | 411 kts | 105° |
| 2026-04-30 19:46 | 51.93825 | 7.27691 | 31366 ft | 423 kts | 105° |
| 2026-04-30 19:46 | 51.92081 | 7.36938 | 31370 ft | 436 kts | 105° |
| 2026-04-30 19:47 | 51.90300 | 7.46416 | 31364 ft | 441 kts | 105° |
| 2026-04-30 19:47 | 51.88515 | 7.55892 | 31373 ft | 440 kts | 105° |
| 2026-04-30 19:48 | 51.86723 | 7.65375 | 31373 ft | 440 kts | 105° |
| 2026-04-30 19:48 | 51.85050 | 7.74900 | 31373 ft | 440 kts | 102° |
| 2026-04-30 19:49 | 51.83744 | 7.84547 | 31384 ft | 439 kts | 100° |
| 2026-04-30 19:49 | 51.81873 | 7.99053 | 31376 ft | 440 kts | 100° |
| 2026-04-30 19:50 | 51.80574 | 8.08716 | 31379 ft | 440 kts | 101° |
| 2026-04-30 19:50 | 51.79249 | 8.18370 | 31393 ft | 440 kts | 101° |
| 2026-04-30 19:51 | 51.77914 | 8.28015 | 31403 ft | 440 kts | 100° |
| 2026-04-30 19:51 | 51.76571 | 8.37647 | 31393 ft | 440 kts | 100° |
| 2026-04-30 19:52 | 51.75221 | 8.47292 | 31403 ft | 440 kts | 101° |
| 2026-04-30 19:52 | 51.73875 | 8.56847 | 31392 ft | 440 kts | 101° |
| 2026-04-30 19:53 | 51.72510 | 8.66476 | 31398 ft | 440 kts | 101° |
| 2026-04-30 19:53 | 51.71141 | 8.76070 | 31403 ft | 438 kts | 101° |
| 2026-04-30 19:54 | 51.69767 | 8.85631 | 31399 ft | 438 kts | 101° |
| 2026-04-30 19:54 | 51.68385 | 8.95195 | 31402 ft | 438 kts | 101° |
| 2026-04-30 19:55 | 51.66998 | 9.04738 | 31402 ft | 438 kts | 101° |
| 2026-04-30 19:55 | 51.66300 | 9.09511 | 31594 ft | 436 kts | 101° |
| 2026-04-30 19:55 | 51.65604 | 9.14263 | 31861 ft | 436 kts | 101° |
| 2026-04-30 19:56 | 51.64907 | 9.19008 | 32102 ft | 436 kts | 101° |
| 2026-04-30 19:56 | 51.64206 | 9.23762 | 32342 ft | 436 kts | 101° |
| 2026-04-30 19:56 | 51.63505 | 9.28501 | 32580 ft | 435 kts | 101° |
| 2026-04-30 19:56 | 51.62803 | 9.33237 | 32815 ft | 435 kts | 101° |
| 2026-04-30 19:57 | 51.62100 | 9.37963 | 33033 ft | 434 kts | 101° |
| 2026-04-30 19:57 | 51.61395 | 9.42690 | 33257 ft | 434 kts | 101° |
| 2026-04-30 19:57 | 51.60688 | 9.47411 | 33473 ft | 434 kts | 101° |
| 2026-04-30 19:57 | 51.59980 | 9.52125 | 33689 ft | 433 kts | 101° |
| 2026-04-30 19:58 | 51.59274 | 9.56808 | 34031 ft | 429 kts | 101° |
| 2026-04-30 19:58 | 51.58574 | 9.61441 | 34453 ft | 423 kts | 101° |
| 2026-04-30 19:58 | 51.57879 | 9.66017 | 34720 ft | 421 kts | 101° |
| 2026-04-30 19:58 | 51.57180 | 9.70635 | 34519 ft | 430 kts | 101° |
| 2026-04-30 19:59 | 51.55757 | 9.79986 | 34426 ft | 430 kts | 101° |
| 2026-04-30 20:00 | 51.53607 | 9.93972 | 34430 ft | 430 kts | 101° |
| 2026-04-30 20:00 | 51.52164 | 10.03292 | 34431 ft | 430 kts | 101° |
| 2026-04-30 20:01 | 51.49988 | 10.17248 | 34438 ft | 429 kts | 101° |
| 2026-04-30 20:01 | 51.48532 | 10.26520 | 34435 ft | 428 kts | 101° |
| 2026-04-30 20:02 | 51.46340 | 10.40386 | 34435 ft | 428 kts | 101° |
| 2026-04-30 20:03 | 51.44134 | 10.54261 | 34437 ft | 428 kts | 101° |
| 2026-04-30 20:03 | 51.42674 | 10.63494 | 34552 ft | 427 kts | 100° |
| 2026-04-30 20:04 | 51.41943 | 10.68103 | 34726 ft | 426 kts | 100° |
| 2026-04-30 20:04 | 51.41214 | 10.72693 | 34863 ft | 426 kts | 100° |
| 2026-04-30 20:04 | 51.40480 | 10.77295 | 34992 ft | 426 kts | 100° |
| 2026-04-30 20:05 | 51.39008 | 10.86493 | 35251 ft | 426 kts | 100° |
| 2026-04-30 20:05 | 51.38270 | 10.91080 | 35365 ft | 426 kts | 100° |
| 2026-04-30 20:05 | 51.36784 | 11.00274 | 35594 ft | 427 kts | 100° |
| 2026-04-30 20:06 | 51.35290 | 11.09472 | 35821 ft | 428 kts | 100° |
| 2026-04-30 20:06 | 51.33785 | 11.18684 | 35988 ft | 429 kts | 100° |
| 2026-04-30 20:07 | 51.32280 | 11.27848 | 36140 ft | 430 kts | 100° |
| 2026-04-30 20:07 | 51.30749 | 11.37114 | 36311 ft | 431 kts | 100° |
| 2026-04-30 20:08 | 51.29982 | 11.41738 | 36388 ft | 432 kts | 100° |
| 2026-04-30 20:08 | 51.28437 | 11.51018 | 36529 ft | 432 kts | 100° |
| 2026-04-30 20:08 | 51.27660 | 11.55658 | 36632 ft | 433 kts | 100° |
| 2026-04-30 20:09 | 51.26883 | 11.60293 | 36714 ft | 433 kts | 100° |
| 2026-04-30 20:09 | 51.24531 | 11.74250 | 36903 ft | 435 kts | 100° |
| 2026-04-30 20:10 | 51.22951 | 11.83566 | 37021 ft | 435 kts | 100° |
| 2026-04-30 20:10 | 51.22156 | 11.88229 | 37088 ft | 436 kts | 100° |
| 2026-04-30 20:11 | 51.19757 | 12.02224 | 37378 ft | 435 kts | 99° |
| 2026-04-30 20:11 | 51.18150 | 12.11547 | 37428 ft | 438 kts | 99° |
| 2026-04-30 20:12 | 51.15716 | 12.25571 | 37427 ft | 437 kts | 99° |
| 2026-04-30 20:13 | 51.14090 | 12.34873 | 37428 ft | 436 kts | 100° |
| 2026-04-30 20:13 | 51.12456 | 12.44178 | 37446 ft | 436 kts | 99° |
| 2026-04-30 20:14 | 51.10815 | 12.53466 | 37427 ft | 435 kts | 99° |
| 2026-04-30 20:14 | 51.09170 | 12.62734 | 37427 ft | 435 kts | 99° |
| 2026-04-30 20:15 | 51.07517 | 12.72002 | 37426 ft | 435 kts | 99° |
| 2026-04-30 20:15 | 51.05858 | 12.81255 | 37427 ft | 435 kts | 99° |
| 2026-04-30 20:16 | 51.04192 | 12.90502 | 37435 ft | 435 kts | 99° |
| 2026-04-30 20:16 | 51.02521 | 12.99723 | 37436 ft | 434 kts | 99° |
| 2026-04-30 20:17 | 51.01129 | 13.07369 | 37427 ft | 433 kts | 99° |
| 2026-04-30 20:17 | 50.99450 | 13.16557 | 37428 ft | 434 kts | 99° |
| 2026-04-30 20:18 | 50.97486 | 13.27243 | 37431 ft | 434 kts | 100° |
| 2026-04-30 20:18 | 50.96065 | 13.34935 | 37438 ft | 433 kts | 99° |
| 2026-04-30 20:19 | 50.94366 | 13.44082 | 37428 ft | 432 kts | 99° |
| 2026-04-30 20:19 | 50.92662 | 13.53221 | 37432 ft | 432 kts | 99° |
| 2026-04-30 20:20 | 50.90962 | 13.62293 | 37430 ft | 432 kts | 100° |
| 2026-04-30 20:20 | 50.89244 | 13.71418 | 37430 ft | 432 kts | 100° |
| 2026-04-30 20:21 | 50.87518 | 13.80536 | 37429 ft | 432 kts | 100° |
| 2026-04-30 20:21 | 50.85786 | 13.89644 | 37430 ft | 432 kts | 100° |
| 2026-04-30 20:22 | 50.83503 | 13.98530 | 37430 ft | 444 kts | 114° |
| 2026-04-30 20:22 | 50.79583 | 14.06247 | 37428 ft | 458 kts | 128° |
| 2026-04-30 20:23 | 50.74915 | 14.13174 | 37435 ft | 462 kts | 131° |
| 2026-04-30 20:23 | 50.70119 | 14.19935 | 37439 ft | 462 kts | 131° |
| 2026-04-30 20:24 | 50.65333 | 14.26702 | 37433 ft | 462 kts | 131° |
| 2026-04-30 20:24 | 50.60578 | 14.33482 | 37424 ft | 461 kts | 130° |
| 2026-04-30 20:25 | 50.53450 | 14.43660 | 37426 ft | 461 kts | 130° |
| 2026-04-30 20:26 | 50.46315 | 14.53811 | 37431 ft | 461 kts | 130° |
| 2026-04-30 20:26 | 50.39382 | 14.64211 | 37420 ft | 459 kts | 128° |
| 2026-04-30 20:27 | 50.30216 | 14.78169 | 37418 ft | 460 kts | 128° |
| 2026-04-30 20:28 | 50.21002 | 14.92028 | 37420 ft | 460 kts | 128° |
| 2026-04-30 20:30 | 50.09463 | 15.09264 | 37408 ft | 461 kts | 129° |
| 2026-04-30 20:31 | 49.95531 | 15.29919 | 37403 ft | 462 kts | 129° |
| 2026-04-30 20:32 | 49.83857 | 15.47091 | 37413 ft | 462 kts | 129° |
| 2026-04-30 20:33 | 49.76842 | 15.57352 | 37418 ft | 463 kts | 128° |
| 2026-04-30 20:34 | 49.69809 | 15.67600 | 37408 ft | 464 kts | 129° |
| 2026-04-30 20:35 | 49.62761 | 15.77825 | 37408 ft | 464 kts | 129° |
| 2026-04-30 20:35 | 49.55735 | 15.87971 | 37216 ft | 462 kts | 129° |
| 2026-04-30 20:36 | 49.51050 | 15.94715 | 37291 ft | 461 kts | 129° |
| 2026-04-30 20:37 | 49.44012 | 16.04814 | 37069 ft | 460 kts | 129° |
| 2026-04-30 20:37 | 49.41677 | 16.08152 | 36473 ft | 457 kts | 128° |
| 2026-04-30 20:37 | 49.39363 | 16.11449 | 36042 ft | 451 kts | 128° |
| 2026-04-30 20:37 | 49.37080 | 16.14695 | 35606 ft | 444 kts | 127° |
| 2026-04-30 20:38 | 49.34825 | 16.17900 | 35175 ft | 439 kts | 127° |
| 2026-04-30 20:38 | 49.32601 | 16.21055 | 34816 ft | 436 kts | 128° |
| 2026-04-30 20:38 | 49.30120 | 16.23831 | 34518 ft | 448 kts | 140° |
| 2026-04-30 20:39 | 49.24565 | 16.28238 | 33899 ft | 449 kts | 143° |
| 2026-04-30 20:39 | 49.21761 | 16.30334 | 33685 ft | 447 kts | 143° |
| 2026-04-30 20:39 | 49.18973 | 16.32402 | 33527 ft | 445 kts | 143° |
| 2026-04-30 20:40 | 49.13333 | 16.36587 | 32479 ft | 460 kts | 143° |
| 2026-04-30 20:40 | 49.10436 | 16.38731 | 32015 ft | 466 kts | 144° |
| 2026-04-30 20:40 | 49.07514 | 16.40879 | 31135 ft | 465 kts | 143° |
| 2026-04-30 20:41 | 49.01753 | 16.45089 | 29259 ft | 449 kts | 143° |
| 2026-04-30 20:41 | 48.98962 | 16.47126 | 28434 ft | 439 kts | 143° |
| 2026-04-30 20:41 | 48.96235 | 16.49119 | 27662 ft | 431 kts | 144° |
| 2026-04-30 20:41 | 48.93568 | 16.51068 | 26912 ft | 421 kts | 144° |
| 2026-04-30 20:42 | 48.90940 | 16.52991 | 25989 ft | 417 kts | 144° |
| 2026-04-30 20:42 | 48.88329 | 16.54904 | 25072 ft | 415 kts | 144° |
| 2026-04-30 20:42 | 48.83159 | 16.58680 | 23149 ft | 410 kts | 146° |
| 2026-04-30 20:43 | 48.80593 | 16.60548 | 22123 ft | 407 kts | 146° |
| 2026-04-30 20:43 | 48.77961 | 16.62166 | 21150 ft | 411 kts | 156° |
| 2026-04-30 20:43 | 48.75188 | 16.63232 | 20279 ft | 409 kts | 161° |
| 2026-04-30 20:44 | 48.69693 | 16.65021 | 18665 ft | 397 kts | 162° |
| 2026-04-30 20:44 | 48.67019 | 16.65883 | 17845 ft | 389 kts | 162° |
| 2026-04-30 20:44 | 48.61841 | 16.67567 | 16268 ft | 374 kts | 162° |
| 2026-04-30 20:45 | 48.56789 | 16.68845 | 14790 ft | 366 kts | 174° |
| 2026-04-30 20:45 | 48.54263 | 16.68788 | 14048 ft | 362 kts | 180° |
| 2026-04-30 20:45 | 48.51764 | 16.68467 | 13238 ft | 357 kts | 183° |
| 2026-04-30 20:46 | 48.44626 | 16.67142 | 11514 ft | 324 kts | 184° |
| 2026-04-30 20:46 | 48.42433 | 16.66750 | 11167 ft | 312 kts | 184° |
| 2026-04-30 20:47 | 48.38282 | 16.66071 | 10880 ft | 288 kts | 183° |
| 2026-04-30 20:47 | 48.36310 | 16.65769 | 10762 ft | 284 kts | 183° |
| 2026-04-30 20:48 | 48.32388 | 16.65186 | 10468 ft | 283 kts | 183° |
| 2026-04-30 20:48 | 48.30431 | 16.64896 | 10110 ft | 283 kts | 184° |
| 2026-04-30 20:48 | 48.28480 | 16.64628 | 9775 ft | 279 kts | 179° |
| 2026-04-30 20:48 | 48.26592 | 16.64848 | 9504 ft | 275 kts | 168° |
| 2026-04-30 20:49 | 48.24715 | 16.65382 | 9230 ft | 274 kts | 165° |
| 2026-04-30 20:49 | 48.22866 | 16.66058 | 8947 ft | 272 kts | 162° |
| 2026-04-30 20:49 | 48.21044 | 16.66810 | 8670 ft | 271 kts | 161° |
| 2026-04-30 20:50 | 48.17429 | 16.68384 | 8113 ft | 269 kts | 161° |
| 2026-04-30 20:50 | 48.15634 | 16.69163 | 7840 ft | 269 kts | 161° |
| 2026-04-30 20:50 | 48.13835 | 16.69933 | 7568 ft | 268 kts | 162° |
| 2026-04-30 20:50 | 48.12047 | 16.70688 | 7293 ft | 267 kts | 162° |
| 2026-04-30 20:51 | 48.10258 | 16.71438 | 7020 ft | 266 kts | 162° |
| 2026-04-30 20:51 | 48.06708 | 16.72914 | 6466 ft | 265 kts | 162° |
| 2026-04-30 20:51 | 48.04933 | 16.73650 | 6194 ft | 265 kts | 162° |
| 2026-04-30 20:52 | 48.03156 | 16.74387 | 5924 ft | 264 kts | 162° |
| 2026-04-30 20:52 | 48.01391 | 16.75118 | 5655 ft | 263 kts | 162° |
| 2026-04-30 20:52 | 47.97868 | 16.76578 | 5126 ft | 262 kts | 162° |
| 2026-04-30 20:53 | 47.96122 | 16.77301 | 5021 ft | 261 kts | 162° |
| 2026-04-30 20:53 | 47.94337 | 16.77856 | 4730 ft | 265 kts | 175° |
| 2026-04-30 20:53 | 47.92515 | 16.77572 | 4368 ft | 262 kts | 199° |
| 2026-04-30 20:54 | 47.89979 | 16.74178 | 3821 ft | 243 kts | 253° |
| 2026-04-30 20:54 | 47.89729 | 16.71730 | 3908 ft | 240 kts | 279° |
| 2026-04-30 20:54 | 47.90162 | 16.69356 | 3991 ft | 237 kts | 302° |
| 2026-04-30 20:55 | 47.92500 | 16.66161 | 3994 ft | 229 kts | 337° |
| 2026-04-30 20:55 | 47.93987 | 16.65359 | 3995 ft | 226 kts | 347° |
| 2026-04-30 20:55 | 47.95485 | 16.64751 | 3957 ft | 221 kts | 347° |
| 2026-04-30 20:56 | 47.98407 | 16.63545 | 3368 ft | 212 kts | 347° |
| 2026-04-30 20:56 | 47.99787 | 16.62966 | 3081 ft | 202 kts | 347° |
| 2026-04-30 20:56 | 48.02422 | 16.61824 | 2044 ft | 191 kts | 346° |
| 2026-04-30 20:57 | 48.03672 | 16.61277 | 1653 ft | 183 kts | 346° |
| 2026-04-30 20:57 | 48.04842 | 16.60804 | 1478 ft | 171 kts | 347° |
| 2026-04-30 20:57 | 48.06020 | 16.60342 | 1193 ft | 178 kts | 345° |
| 2026-04-30 20:58 | 48.08339 | 16.59355 | 764 ft | 167 kts | 344° |
| 2026-04-30 20:58 | 48.09414 | 16.58907 | 627 ft | 146 kts | 345° |
| 2026-04-30 20:58 | 48.10114 | 16.58612 | 630 ft | 62 kts | 344° |
| 2026-04-30 20:58 | 48.10363 | 16.58484 | 614 ft | 28 kts | 321° |
| 2026-04-30 20:59 | 48.10536 | 16.58147 | 626 ft | 10 kts | 338° |
| 2026-04-30 20:59 | 48.10603 | 16.58121 | 626 ft | 11 kts | 347° |
| 2026-04-30 21:00 | 48.10744 | 16.58066 | 616 ft | 10 kts | 344° |
| 2026-04-30 21:00 | 48.10904 | 16.57991 | 625 ft | 13 kts | 334° |
| 2026-04-30 21:01 | 48.11014 | 16.57843 | 622 ft | 10 kts | 319° |
| 2026-04-30 21:01 | 48.11077 | 16.57783 | 623 ft | 11 kts | 332° |
| 2026-04-30 21:01 | 48.11188 | 16.57621 | 628 ft | 12 kts | 296° |
| 2026-04-30 21:02 | 48.11212 | 16.57546 | 620 ft | 12 kts | 295° |
| 2026-04-30 21:02 | 48.11258 | 16.57398 | 631 ft | 11 kts | 295° |
| 2026-04-30 21:02 | 48.11279 | 16.57328 | 626 ft | 11 kts | 295° |
| 2026-04-30 21:02 | 48.11315 | 16.57216 | 630 ft | 13 kts | 296° |
| 2026-04-30 21:03 | 48.11363 | 16.57077 | 631 ft | 16 kts | 298° |
| 2026-04-30 21:03 | 48.11416 | 16.56926 | 628 ft | 17 kts | 297° |
| 2026-04-30 21:03 | 48.11467 | 16.56772 | 627 ft | 12 kts | 296° |
| 2026-04-30 21:03 | 48.11505 | 16.56655 | 618 ft | 13 kts | 296° |
| 2026-04-30 21:04 | 48.11549 | 16.56520 | 624 ft | 15 kts | 296° |
| 2026-04-30 21:04 | 48.11595 | 16.56381 | 616 ft | 14 kts | 296° |
| 2026-04-30 21:04 | 48.11666 | 16.56252 | 620 ft | 8 kts | 1° |
| 2026-04-30 21:05 | 48.11731 | 16.56301 | 619 ft | 13 kts | 34° |
| 2026-04-30 21:05 | 48.11748 | 16.56410 | 614 ft | 7 kts | 117° |
| 2026-04-30 21:05 | 48.11738 | 16.56436 | 620 ft | 5 kts | 121° |
| 2026-04-30 21:05 | 48.11716 | 16.56508 | 619 ft | 6 kts | 89° |
| 2026-04-30 21:06 | 48.11749 | 16.56550 | 615 ft | 9 kts | 26° |
| 2026-04-30 21:06 | 48.11793 | 16.56596 | 614 ft | 6 kts | 34° |
| 2026-04-30 21:06 | 48.11794 | 16.56596 | 614 ft | 0 kts | 29° |